createdAt,value
2019-02-28T00:01:35.900Z,70.00
2019-02-28T00:04:07.295Z,70.30
2019-02-28T00:06:43.984Z,70.50
2019-02-28T00:09:13.682Z,70.30
2019-02-28T00:11:43.766Z,70.30
2019-02-28T00:14:13.841Z,70.00
2019-02-28T00:16:46.269Z,69.60
2019-02-28T00:19:17.360Z,69.10
2019-02-28T00:21:47.434Z,69.40
2019-02-28T00:24:27.174Z,69.20
2019-02-28T00:26:56.127Z,69.80
2019-02-28T00:29:26.207Z,70.00
2019-02-28T00:31:58.009Z,69.60
2019-02-28T00:34:27.979Z,69.30
2019-02-28T00:36:58.066Z,68.80
2019-02-28T00:39:31.442Z,69.40
2019-02-28T00:42:01.497Z,69.40
2019-02-28T00:44:31.555Z,69.90
2019-02-28T00:47:01.632Z,70.00
2019-02-28T00:49:33.419Z,70.40
2019-02-28T00:52:08.203Z,70.60
2019-02-28T00:54:43.229Z,70.10
2019-02-28T00:57:12.959Z,69.90
2019-02-28T00:59:42.738Z,69.90
2019-02-28T01:02:13.763Z,68.80
2019-02-28T01:04:47.057Z,68.40
2019-02-28T01:07:20.797Z,68.50
2019-02-28T01:09:52.496Z,68.50
2019-02-28T01:12:24.040Z,68.60
2019-02-28T01:14:54.059Z,69.20
2019-02-28T01:17:26.703Z,69.00
2019-02-28T01:20:03.280Z,68.70
2019-02-28T01:22:33.382Z,68.40
2019-02-28T01:25:06.477Z,68.50
2019-02-28T01:27:36.385Z,68.50
2019-02-28T01:30:08.221Z,68.80
2019-02-28T01:32:38.704Z,68.90
2019-02-28T01:35:12.332Z,69.80
2019-02-28T01:37:43.416Z,69.40
2019-02-28T01:40:16.162Z,69.20
2019-02-28T01:42:47.188Z,68.90
2019-02-28T01:45:18.557Z,68.50
2019-02-28T01:47:52.360Z,68.40
2019-02-28T01:50:24.230Z,68.40
2019-02-28T01:52:54.306Z,69.00
2019-02-28T01:55:24.323Z,68.80
2019-02-28T01:57:54.404Z,69.50
2019-02-28T02:00:29.190Z,69.50
2019-02-28T02:02:59.168Z,69.10
2019-02-28T02:05:29.356Z,69.20
2019-02-28T02:08:07.298Z,69.80
2019-02-28T02:10:32.154Z,69.60
2019-02-28T02:13:04.346Z,70.10
2019-02-28T02:15:39.537Z,70.70
2019-02-28T02:18:12.010Z,71.20
2019-02-28T02:20:41.331Z,71.50
2019-02-28T02:23:17.839Z,71.60
2019-02-28T02:25:44.834Z,70.70
2019-02-28T02:28:16.113Z,69.70
2019-02-28T02:30:50.507Z,69.50
2019-02-28T02:33:18.581Z,69.50
2019-02-28T02:35:49.782Z,69.40
2019-02-28T02:38:21.643Z,69.20
2019-02-28T02:40:58.944Z,69.30
2019-02-28T02:43:26.475Z,69.30
2019-02-28T02:45:56.547Z,69.60
2019-02-28T02:48:26.766Z,70.30
2019-02-28T02:50:56.888Z,71.50
2019-02-28T02:53:30.825Z,72.40
2019-02-28T02:56:03.900Z,72.60
2019-02-28T02:58:33.785Z,73.90
2019-02-28T03:01:03.931Z,74.10
2019-02-28T03:03:35.105Z,74.50
2019-02-28T03:06:12.132Z,74.30
2019-02-28T03:08:38.282Z,74.00
2019-02-28T03:11:08.391Z,74.00
2019-02-28T03:13:44.015Z,74.40
2019-02-28T03:16:25.489Z,74.20
2019-02-28T03:18:58.168Z,74.10
2019-02-28T03:21:26.382Z,74.20
2019-02-28T03:23:57.626Z,74.20
2019-02-28T03:26:28.863Z,74.00
2019-02-28T03:29:07.506Z,73.60
2019-02-28T03:31:32.246Z,73.60
2019-02-28T03:34:11.336Z,73.10
2019-02-28T03:36:35.257Z,72.90
2019-02-28T03:39:07.211Z,72.80
2019-02-28T03:41:37.271Z,72.80
2019-02-28T03:44:10.114Z,72.40
2019-02-28T03:46:47.054Z,72.10
2019-02-28T03:49:16.193Z,71.80
2019-02-28T03:51:46.229Z,71.70
2019-02-28T03:54:18.054Z,71.40
2019-02-28T03:56:52.820Z,71.20
2019-02-28T03:59:20.228Z,70.70
2019-02-28T04:01:50.404Z,70.60
2019-02-28T04:04:24.869Z,71.30
2019-02-28T04:06:59.246Z,71.00
2019-02-28T04:09:30.411Z,71.00
2019-02-28T04:12:07.259Z,70.80
2019-02-28T04:14:33.065Z,71.00
2019-02-28T04:17:03.891Z,71.20
2019-02-28T04:19:34.041Z,71.50
2019-02-28T04:22:05.749Z,71.80
2019-02-28T04:24:36.925Z,72.00
2019-02-28T04:27:07.886Z,71.90
2019-02-28T04:29:38.073Z,72.10
2019-02-28T04:32:08.174Z,72.40
2019-02-28T04:34:38.268Z,72.40
2019-02-28T04:37:10.112Z,73.30
2019-02-28T04:39:40.182Z,73.10
2019-02-28T04:42:10.326Z,73.40
2019-02-28T04:44:40.492Z,73.40
2019-02-28T04:47:13.709Z,73.60
2019-02-28T04:49:43.836Z,73.70
2019-02-28T04:52:13.825Z,74.20
2019-02-28T04:54:43.835Z,74.30
2019-02-28T04:57:17.335Z,74.50
2019-02-28T04:59:46.710Z,75.00
2019-02-28T05:02:19.943Z,75.40
2019-02-28T05:04:54.705Z,75.00
2019-02-28T05:07:26.293Z,74.60
2019-02-28T05:09:57.773Z,75.00
2019-02-28T05:12:27.851Z,74.70
2019-02-28T05:15:02.517Z,74.50
2019-02-28T05:17:34.419Z,74.30
2019-02-28T05:20:07.318Z,74.50
2019-02-28T05:22:36.247Z,74.10
2019-02-28T05:25:06.359Z,73.90
2019-02-28T05:27:37.947Z,73.50
2019-02-28T05:30:09.931Z,73.20
2019-02-28T05:32:40.075Z,73.00
2019-02-28T05:35:10.215Z,73.00
2019-02-28T05:37:46.409Z,72.90
2019-02-28T05:40:14.264Z,72.60
2019-02-28T05:42:44.249Z,72.50
2019-02-28T05:45:15.703Z,72.70
2019-02-28T05:47:47.560Z,72.30
2019-02-28T05:50:17.712Z,72.50
2019-02-28T05:52:47.827Z,72.30
2019-02-28T05:55:25.617Z,71.60
2019-02-28T05:57:53.977Z,71.70
2019-02-28T06:00:29.959Z,72.00
2019-02-28T06:03:04.532Z,72.10
2019-02-28T06:05:31.144Z,72.00
2019-02-28T06:08:03.555Z,71.50
2019-02-28T06:10:35.935Z,71.50
2019-02-28T06:13:15.321Z,70.70
2019-02-28T06:15:49.338Z,70.50
2019-02-28T06:18:22.724Z,70.60
2019-02-28T06:20:55.862Z,70.50
2019-02-28T06:23:30.115Z,70.60
2019-02-28T06:26:02.642Z,70.50
2019-02-28T06:28:34.338Z,69.60
2019-02-28T06:31:03.705Z,69.20
2019-02-28T06:33:36.193Z,68.40
2019-02-28T06:36:07.122Z,68.40
2019-02-28T06:38:38.421Z,65.90
2019-02-28T06:41:09.678Z,58.10
2019-02-28T06:43:40.928Z,51.00
2019-02-28T06:46:12.196Z,44.90
2019-02-28T06:48:47.978Z,40.40
2019-02-28T06:51:18.604Z,38.80
2019-02-28T06:53:48.738Z,40.10
2019-02-28T06:56:21.878Z,39.80
2019-02-28T06:58:51.904Z,38.40
2019-02-28T07:01:29.579Z,36.20
2019-02-28T07:03:58.648Z,35.30
2019-02-28T07:06:35.690Z,34.00
2019-02-28T07:09:03.804Z,32.90
2019-02-28T07:11:33.876Z,30.40
2019-02-28T07:14:03.941Z,29.50
2019-02-28T07:16:38.026Z,29.80
2019-02-28T07:19:08.264Z,30.00
2019-02-28T07:21:42.981Z,29.50
2019-02-28T07:24:11.256Z,28.20
2019-02-28T07:26:42.725Z,26.80
2019-02-28T07:29:12.824Z,25.80
2019-02-28T07:31:42.911Z,24.50
2019-02-28T07:34:19.682Z,23.90
2019-02-28T07:36:48.073Z,24.30
2019-02-28T07:39:18.185Z,23.20
2019-02-28T07:41:52.399Z,23.30
2019-02-28T07:44:27.948Z,22.80
2019-02-28T07:46:59.121Z,22.70
2019-02-28T07:49:35.826Z,21.90
2019-02-28T07:52:04.016Z,19.80
2019-02-28T07:54:35.444Z,18.60
2019-02-28T07:57:05.564Z,19.90
2019-02-28T07:59:40.979Z,18.80
2019-02-28T08:02:08.716Z,18.20
2019-02-28T08:04:38.885Z,18.50
2019-02-28T08:07:11.489Z,19.60
2019-02-28T08:09:41.523Z,19.00
2019-02-28T08:12:12.917Z,20.00
2019-02-28T08:14:43.718Z,21.40
2019-02-28T08:17:14.811Z,19.40
2019-02-28T08:19:46.849Z,19.40
2019-02-28T08:22:23.248Z,19.00
2019-02-28T08:24:48.441Z,17.90
2019-02-28T08:27:18.598Z,18.40
2019-02-28T08:29:48.704Z,17.70
2019-02-28T08:32:18.875Z,17.60
2019-02-28T08:34:49.050Z,17.70
2019-02-28T08:37:20.136Z,18.40
2019-02-28T08:39:50.606Z,17.50
2019-02-28T08:42:20.713Z,17.20
2019-02-28T08:44:50.910Z,16.80
2019-02-28T08:47:21.820Z,17.20
2019-02-28T08:49:52.059Z,17.10
2019-02-28T08:52:22.204Z,17.20
2019-02-28T08:54:52.374Z,17.00
2019-02-28T08:57:25.679Z,16.40
2019-02-28T08:59:56.339Z,17.00
2019-02-28T09:02:25.993Z,17.60
2019-02-28T09:04:56.080Z,17.20
2019-02-28T09:07:26.114Z,17.40
2019-02-28T09:09:56.127Z,17.30
2019-02-28T09:12:26.244Z,17.70
2019-02-28T09:14:56.365Z,17.00
2019-02-28T09:17:26.428Z,16.50
2019-02-28T09:19:56.420Z,16.20
2019-02-28T09:22:27.454Z,16.40
2019-02-28T09:24:58.322Z,16.20
2019-02-28T09:27:28.415Z,16.10
2019-02-28T09:29:58.433Z,16.20
2019-02-28T09:32:28.434Z,16.00
2019-02-28T09:34:58.523Z,16.30
2019-02-28T09:37:29.810Z,15.70
2019-02-28T09:40:00.414Z,15.50
2019-02-28T09:42:30.501Z,15.30
2019-02-28T09:45:06.818Z,14.30
2019-02-28T09:47:32.387Z,14.70
2019-02-28T09:50:02.507Z,15.00
2019-02-28T09:52:32.621Z,14.80
2019-02-28T09:55:02.786Z,14.60
2019-02-28T09:57:32.873Z,15.30
2019-02-28T10:00:02.952Z,15.80
2019-02-28T10:02:33.038Z,16.40
2019-02-28T10:05:06.570Z,17.00
2019-02-28T10:07:35.115Z,17.30
2019-02-28T10:10:05.998Z,19.00
2019-02-28T10:12:36.041Z,18.20
2019-02-28T10:15:07.474Z,18.10
2019-02-28T10:17:37.621Z,18.70
2019-02-28T10:20:10.919Z,18.60
2019-02-28T10:22:40.975Z,18.20
2019-02-28T10:25:11.343Z,18.50
2019-02-28T10:27:41.331Z,18.40
2019-02-28T10:30:15.946Z,18.30
2019-02-28T10:32:45.593Z,19.60
2019-02-28T10:35:15.782Z,18.90
2019-02-28T10:37:45.879Z,18.20
2019-02-28T10:40:18.726Z,16.30
2019-02-28T10:42:49.512Z,17.30
2019-02-28T10:45:19.682Z,17.40
2019-02-28T10:47:50.065Z,16.90
2019-02-28T10:50:21.719Z,17.80
2019-02-28T10:52:51.801Z,17.20
2019-02-28T10:55:24.623Z,16.90
2019-02-28T10:57:54.758Z,16.70
2019-02-28T11:00:32.903Z,18.00
2019-02-28T11:03:02.883Z,17.90
2019-02-28T11:05:34.008Z,18.50
2019-02-28T11:08:04.608Z,18.70
2019-02-28T11:10:39.026Z,17.70
2019-02-28T11:13:12.355Z,18.70
2019-02-28T11:15:47.947Z,17.30
2019-02-28T11:18:14.972Z,18.20
2019-02-28T11:20:46.895Z,19.10
2019-02-28T11:23:18.303Z,21.30
2019-02-28T11:28:31.368Z,26.40
2019-02-28T11:31:01.745Z,26.70
2019-02-28T11:33:32.920Z,27.60
2019-02-28T11:36:04.164Z,28.20
2019-02-28T11:38:34.256Z,29.80
2019-02-28T11:41:04.535Z,28.30
2019-02-28T11:43:38.429Z,27.60
2019-02-28T11:46:09.615Z,29.10
2019-02-28T11:48:39.696Z,30.00
2019-02-28T11:51:09.788Z,29.60
2019-02-28T11:53:40.587Z,30.70
2019-02-28T11:56:10.935Z,30.50
2019-02-28T11:58:42.623Z,29.10
2019-02-28T12:01:14.062Z,30.40
2019-02-28T12:03:44.114Z,29.70
2019-02-28T12:06:14.287Z,30.40
2019-02-28T12:08:44.894Z,29.80
2019-02-28T12:11:15.961Z,29.70
2019-02-28T12:13:46.061Z,30.80
2019-02-28T12:16:19.256Z,31.30
2019-02-28T12:18:51.067Z,31.50
2019-02-28T12:21:22.762Z,31.80
2019-02-28T12:23:57.373Z,30.10
2019-02-28T12:26:26.397Z,30.30
2019-02-28T12:28:58.043Z,31.30
2019-02-28T12:31:28.229Z,31.10
2019-02-28T12:33:59.946Z,30.60
2019-02-28T12:36:30.021Z,30.50
2019-02-28T12:39:03.375Z,30.50
2019-02-28T12:41:33.517Z,30.10
2019-02-28T12:44:07.870Z,28.90
2019-02-28T12:46:38.374Z,28.20
2019-02-28T12:49:08.463Z,28.60
2019-02-28T12:51:39.660Z,28.70
2019-02-28T12:54:10.445Z,29.10
2019-02-28T12:56:40.547Z,29.30
2019-02-28T12:59:10.933Z,30.00
2019-02-28T13:01:41.078Z,30.00
2019-02-28T13:04:11.153Z,31.10
2019-02-28T13:06:41.263Z,31.00
2019-02-28T13:09:13.699Z,29.10
2019-02-28T13:11:43.433Z,30.60
2019-02-28T13:14:13.516Z,29.90
2019-02-28T13:16:43.581Z,30.50
2019-02-28T13:19:16.403Z,30.10
2019-02-28T13:21:47.864Z,29.80
2019-02-28T13:24:18.117Z,30.80
2019-02-28T13:26:48.112Z,31.00
2019-02-28T13:29:18.118Z,31.50
2019-02-28T13:31:48.234Z,32.00
2019-02-28T13:34:19.926Z,31.40
2019-02-28T13:36:50.099Z,30.80
2019-02-28T13:39:23.490Z,31.00
2019-02-28T13:41:53.765Z,31.80
2019-02-28T13:44:27.056Z,32.00
2019-02-28T13:46:57.378Z,31.40
2019-02-28T13:49:28.824Z,31.90
2019-02-28T13:51:58.840Z,32.50
2019-02-28T13:54:28.856Z,32.60
2019-02-28T13:56:58.929Z,32.30
2019-02-28T13:59:31.870Z,32.60
2019-02-28T14:02:00.881Z,32.70
2019-02-28T14:04:32.886Z,31.70
2019-02-28T14:07:07.332Z,31.50
2019-02-28T14:09:35.921Z,31.70
2019-02-28T14:12:06.002Z,32.10
2019-02-28T14:14:38.915Z,32.10
2019-02-28T14:17:09.853Z,32.10
2019-02-28T14:19:39.959Z,31.20
2019-02-28T14:22:11.552Z,32.30
2019-02-28T14:24:41.873Z,32.50
2019-02-28T14:27:11.885Z,32.10
2019-02-28T14:29:48.060Z,32.70
2019-02-28T14:32:14.601Z,32.10
2019-02-28T14:34:44.679Z,33.00
2019-02-28T14:37:16.822Z,32.20
2019-02-28T14:39:46.960Z,32.70
2019-02-28T14:42:16.956Z,32.20
2019-02-28T14:44:46.943Z,33.00
2019-02-28T14:47:17.049Z,33.40
2019-02-28T14:49:47.053Z,32.20
2019-02-28T14:52:17.141Z,32.10
2019-02-28T14:54:47.183Z,32.60
2019-02-28T14:57:17.758Z,32.90
2019-02-28T14:59:47.865Z,32.90
2019-02-28T15:02:18.328Z,32.30
2019-02-28T15:04:48.351Z,32.90
2019-02-28T15:07:18.425Z,32.90
2019-02-28T15:09:48.435Z,33.00
2019-02-28T15:12:20.261Z,33.00
2019-02-28T15:14:50.328Z,33.20
2019-02-28T15:17:20.464Z,33.40
2019-02-28T15:19:57.062Z,33.50
2019-02-28T15:22:25.802Z,33.70
2019-02-28T15:24:55.876Z,33.40
2019-02-28T15:27:25.911Z,33.70
2019-02-28T15:29:58.900Z,34.10
2019-02-28T15:32:27.802Z,34.80
2019-02-28T15:35:01.374Z,35.40
2019-02-28T15:37:34.821Z,36.50
2019-02-28T15:40:03.133Z,37.70
2019-02-28T15:42:33.266Z,36.50
2019-02-28T15:45:04.107Z,36.00
2019-02-28T15:47:35.292Z,35.40
2019-02-28T15:50:06.254Z,35.40
2019-02-28T15:52:36.721Z,35.50
2019-02-28T15:55:09.589Z,36.90
2019-02-28T15:57:39.899Z,37.20
2019-02-28T16:00:17.443Z,37.00
2019-02-28T16:02:47.913Z,37.40
2019-02-28T16:05:23.797Z,38.00
2019-02-28T16:07:56.143Z,39.20
2019-02-28T16:10:28.518Z,38.50
2019-02-28T16:12:59.742Z,39.10
2019-02-28T16:15:29.936Z,38.50
2019-02-28T16:18:02.721Z,39.20
2019-02-28T16:20:32.896Z,39.80
2019-02-28T16:23:03.135Z,39.80
2019-02-28T16:25:36.930Z,40.60
2019-02-28T16:28:09.115Z,39.30
2019-02-28T16:30:39.869Z,39.10
2019-02-28T16:33:10.028Z,38.90
2019-02-28T16:35:40.053Z,38.20
2019-02-28T16:38:11.228Z,38.80
2019-02-28T16:40:42.611Z,38.90
2019-02-28T16:43:12.774Z,38.80
2019-02-28T16:45:46.333Z,38.70
2019-02-28T16:48:18.006Z,40.10
2019-02-28T16:50:53.677Z,40.60
2019-02-28T16:53:23.829Z,40.50
2019-02-28T16:55:58.312Z,41.70
2019-02-28T16:58:31.171Z,41.00
2019-02-28T17:01:01.181Z,41.70
2019-02-28T17:03:31.382Z,41.40
2019-02-28T17:06:02.241Z,42.00
2019-02-28T17:08:43.128Z,41.60
2019-02-28T17:11:14.625Z,40.70
2019-02-28T17:13:51.323Z,40.70
2019-02-28T17:16:43.413Z,40.90
2019-02-28T17:19:15.287Z,40.80
2019-02-28T17:21:45.365Z,40.60
2019-02-28T17:24:37.319Z,40.70
2019-02-28T17:27:21.713Z,40.30
2019-02-28T17:30:08.320Z,40.30
2019-02-28T17:32:41.524Z,39.80
2019-02-28T17:35:12.741Z,39.30
2019-02-28T17:37:42.818Z,39.10
2019-02-28T17:40:15.607Z,39.10
2019-02-28T17:42:46.402Z,39.50
2019-02-28T17:45:24.519Z,40.40
2019-02-28T17:48:48.791Z,41.40
2019-02-28T17:51:27.597Z,42.00
2019-02-28T17:54:24.446Z,43.80
2019-02-28T17:57:53.725Z,42.50
2019-02-28T18:00:51.848Z,40.70
2019-02-28T18:03:56.889Z,39.90
2019-02-28T18:07:23.709Z,39.60
2019-02-28T18:10:47.940Z,39.50
2019-02-28T18:13:37.331Z,39.70
2019-02-28T18:17:02.146Z,40.10
2019-02-28T18:20:04.114Z,40.60
2019-02-28T18:23:05.048Z,41.20
2019-02-28T18:26:02.269Z,42.00
2019-02-28T18:28:43.986Z,43.10
2019-02-28T18:31:22.250Z,43.10
2019-02-28T18:34:04.198Z,43.70
2019-02-28T18:36:34.392Z,43.80
2019-02-28T18:39:11.480Z,44.40
2019-02-28T18:41:42.232Z,45.00
2019-02-28T18:44:12.869Z,44.60
2019-02-28T18:46:45.002Z,44.80
2019-02-28T18:49:17.060Z,44.50
2019-02-28T18:51:49.947Z,43.90
2019-02-28T18:54:21.147Z,44.20
2019-02-28T18:56:53.028Z,44.60
2019-02-28T18:59:23.129Z,44.70
2019-02-28T19:01:53.230Z,44.70
2019-02-28T19:04:23.328Z,44.80
2019-02-28T19:06:53.377Z,44.60
2019-02-28T19:09:24.681Z,44.80
2019-02-28T19:11:54.854Z,45.00
2019-02-28T19:14:24.982Z,44.80
2019-02-28T19:16:55.123Z,44.50
2019-02-28T19:19:25.221Z,43.90
2019-02-28T19:21:55.401Z,44.10
2019-02-28T19:24:25.520Z,43.70
2019-02-28T19:26:55.735Z,44.00
2019-02-28T19:29:25.755Z,44.00
2019-02-28T19:31:55.838Z,44.50
2019-02-28T19:34:25.977Z,44.80
2019-02-28T19:36:56.089Z,45.30
2019-02-28T19:39:26.197Z,45.60
2019-02-28T19:41:56.411Z,46.00
2019-02-28T19:44:26.597Z,45.90
2019-02-28T19:46:56.717Z,46.20
2019-02-28T19:49:26.990Z,46.60
2019-02-28T19:51:57.273Z,47.20
2019-02-28T19:54:27.445Z,47.40
2019-02-28T19:56:57.533Z,47.80
2019-02-28T19:59:27.816Z,48.10
2019-02-28T20:01:58.155Z,49.10
2019-02-28T20:04:28.207Z,49.50
2019-02-28T20:06:58.331Z,49.80
2019-02-28T20:09:28.523Z,51.20
2019-02-28T20:12:00.567Z,50.90
2019-02-28T20:14:30.324Z,50.40
2019-02-28T20:17:00.404Z,50.40
2019-02-28T20:19:30.524Z,50.80
2019-02-28T20:22:00.654Z,50.90
2019-02-28T20:24:30.845Z,50.80
2019-02-28T20:27:01.032Z,50.80
2019-02-28T20:29:31.204Z,51.10
2019-02-28T20:32:01.317Z,51.00
2019-02-28T20:34:31.505Z,51.20
2019-02-28T20:37:01.704Z,51.70
2019-02-28T20:39:32.008Z,51.60
2019-02-28T20:42:03.317Z,52.10
2019-02-28T20:44:33.394Z,52.30
2019-02-28T20:47:03.576Z,52.30
2019-02-28T20:49:33.747Z,52.90
2019-02-28T20:52:03.902Z,53.00
2019-02-28T20:54:34.260Z,53.00
2019-02-28T20:57:04.622Z,52.90
2019-02-28T20:59:35.062Z,51.90
2019-02-28T21:02:05.144Z,51.70
2019-02-28T21:04:36.336Z,51.60
2019-02-28T21:07:06.645Z,51.50
2019-02-28T21:09:44.759Z,51.10
2019-02-28T21:12:08.626Z,51.00
2019-02-28T21:14:38.759Z,50.80
2019-02-28T21:17:09.143Z,50.80
2019-02-28T21:19:39.239Z,50.80
2019-02-28T21:22:09.311Z,50.70
2019-02-28T21:24:39.439Z,51.70
2019-02-28T21:27:09.616Z,50.80
2019-02-28T21:29:39.768Z,50.80
2019-02-28T21:32:09.890Z,51.00
2019-02-28T21:34:39.968Z,50.90
2019-02-28T21:37:10.128Z,51.00
2019-02-28T21:39:40.219Z,51.50
2019-02-28T21:42:10.319Z,51.90
2019-02-28T21:44:40.406Z,51.70
2019-02-28T21:47:10.503Z,51.60
2019-02-28T21:49:40.639Z,51.90
2019-02-28T21:52:10.886Z,52.30
2019-02-28T21:54:41.029Z,53.40
2019-02-28T21:57:11.109Z,53.50
2019-02-28T21:59:41.117Z,54.50
2019-02-28T22:02:11.235Z,54.40
2019-02-28T22:04:41.339Z,55.30
2019-02-28T22:07:11.352Z,55.50
2019-02-28T22:09:41.450Z,55.70
2019-02-28T22:12:11.573Z,55.80
2019-02-28T22:14:41.651Z,56.20
2019-02-28T22:17:11.745Z,56.40
2019-02-28T22:19:41.834Z,56.80
2019-02-28T22:22:14.809Z,56.80
2019-02-28T22:24:44.903Z,56.80
2019-02-28T22:27:15.034Z,56.90
2019-02-28T22:29:45.377Z,57.40
2019-02-28T22:32:26.779Z,57.50
2019-02-28T22:35:02.404Z,57.60
2019-02-28T22:37:32.566Z,57.50
2019-02-28T22:40:02.653Z,57.60
2019-02-28T22:42:32.744Z,57.90
2019-02-28T22:45:02.753Z,57.90
2019-02-28T22:47:32.858Z,58.40
2019-02-28T22:50:02.955Z,58.50
2019-02-28T22:52:33.050Z,58.50
2019-02-28T22:55:03.236Z,58.30
2019-02-28T22:57:34.322Z,58.50
2019-02-28T23:00:05.962Z,58.60
2019-02-28T23:02:36.122Z,58.80
2019-02-28T23:05:08.143Z,58.90
2019-02-28T23:07:38.244Z,59.50
2019-02-28T23:10:09.866Z,59.90
2019-02-28T23:12:39.884Z,60.20
2019-02-28T23:15:09.956Z,60.80
2019-02-28T23:17:44.014Z,61.00
2019-02-28T23:20:14.364Z,60.70
2019-02-28T23:22:45.928Z,60.60
2019-02-28T23:25:17.336Z,60.50
2019-02-28T23:27:47.739Z,60.30
2019-02-28T23:30:56.274Z,60.40
2019-02-28T23:33:26.282Z,60.70
2019-02-28T23:35:56.457Z,61.00
2019-02-28T23:38:29.463Z,61.00
2019-02-28T23:41:02.461Z,61.10
2019-02-28T23:43:33.695Z,61.10
2019-02-28T23:46:05.066Z,61.10
2019-02-28T23:48:37.929Z,61.30
2019-02-28T23:51:09.108Z,61.50
2019-02-28T23:53:39.249Z,61.60
2019-02-28T23:56:10.608Z,61.90
2019-02-28T23:58:41.710Z,62.30
